Time;durP1;ratioP1;P1;durP2;ratioP2;P2;SDS_P1;SDS_P2;PMS_P1;PMS_P2;Temp;Humidity;BMP_temperature;BMP_pressure;BME280_temperature;BME280_humidity;BME280_pressure;Samples;Min_cycle;Max_cycle;Signal;HPM_P1;HPM_P2
2022/04/23 00:00:12;;;;;;;18.60;12.18;;;;;;;9.41;65.96;98500.63;12193545;19;20015;-83
2022/04/23 00:04:14;;;;;;;19.23;12.47;;;;;;;9.36;65.94;98492.38;12213184;19;20097;-82
2022/04/23 00:08:16;;;;;;;17.00;11.73;;;;;;;9.31;66.04;98489.59;12212234;19;20010;-82
2022/04/23 00:12:18;;;;;;;20.20;11.90;;;;;;;9.27;66.35;98485.78;12185220;19;20078;-82
2022/04/23 00:16:25;;;;;;;18.30;11.95;;;;;;;9.25;66.50;98482.47;12212070;19;20006;-83
2022/04/23 00:20:29;;;;;;;18.48;12.20;;;;;;;9.22;67.23;98478.34;12217584;19;20021;-82
2022/04/23 00:24:31;;;;;;;21.13;12.55;;;;;;;9.24;66.54;98480.81;12205697;19;20002;-82
2022/04/23 00:28:33;;;;;;;19.55;12.02;;;;;;;9.24;66.92;98483.56;12217131;19;20021;-82
2022/04/23 00:32:34;;;;;;;21.00;12.27;;;;;;;9.21;66.84;98484.13;12219775;19;20483;-82
2022/04/23 00:36:36;;;;;;;24.30;13.00;;;;;;;9.23;67.02;98492.91;12189353;19;20018;-82
2022/04/23 00:40:41;;;;;;;18.58;12.27;;;;;;;9.29;67.18;98483.59;12215343;19;20007;-81
2022/04/23 00:44:42;;;;;;;22.15;12.82;;;;;;;9.35;67.24;98490.72;12191834;19;20011;-81
2022/04/23 00:48:44;;;;;;;18.50;11.93;;;;;;;9.32;68.06;98492.09;12218621;19;20006;-81
2022/04/23 00:52:49;;;;;;;20.60;13.52;;;;;;;9.33;67.41;98498.41;12222359;19;20130;-81
2022/04/23 00:56:53;;;;;;;20.52;12.02;;;;;;;9.27;67.41;98494.84;12193756;19;20356;-82
2022/04/23 01:00:54;;;;;;;19.48;12.95;;;;;;;9.20;67.79;98501.72;12215670;19;20028;-82
2022/04/23 01:04:56;;;;;;;19.00;12.00;;;;;;;9.12;67.83;98492.06;12214289;19;20014;-82
2022/04/23 01:08:58;;;;;;;21.40;13.27;;;;;;;9.05;68.45;98503.34;12195069;19;20398;-82
2022/04/23 01:13:00;;;;;;;19.95;13.38;;;;;;;9.01;68.94;98498.63;12210330;19;20023;-82
2022/04/23 01:17:03;;;;;;;20.10;12.38;;;;;;;8.97;69.23;98497.53;12213794;19;20006;-82
2022/04/23 01:21:05;;;;;;;19.60;12.45;;;;;;;8.90;70.57;98506.06;12189875;19;20070;-82
2022/04/23 01:25:12;;;;;;;18.67;12.10;;;;;;;8.89;70.54;98509.88;12220760;19;20552;-81
2022/04/23 01:29:14;;;;;;;25.75;13.52;;;;;;;8.89;70.96;98507.13;12218806;19;20006;-81
2022/04/23 01:33:15;;;;;;;20.30;12.90;;;;;;;8.94;70.90;98495.34;12182430;19;20041;-82
2022/04/23 01:37:17;;;;;;;22.17;13.70;;;;;;;8.90;72.61;98501.38;12216588;19;20010;-81
2022/04/23 01:41:19;;;;;;;23.33;13.75;;;;;;;8.94;72.77;98500.84;12211887;19;20099;-81
2022/04/23 01:45:21;;;;;;;25.58;13.93;;;;;;;8.96;71.84;98488.47;12194828;19;20018;-80
2022/04/23 01:49:22;;;;;;;21.73;13.88;;;;;;;9.01;71.89;98488.50;12201316;19;20011;-81
2022/04/23 01:53:25;;;;;;;23.10;14.23;;;;;;;9.02;72.01;98483.81;12217280;19;20027;-81
2022/04/23 01:57:27;;;;;;;22.15;14.13;;;;;;;9.08;72.84;98491.78;12192268;19;20010;-81
2022/04/23 02:01:29;;;;;;;21.97;14.07;;;;;;;9.12;73.56;98503.88;12207679;19;20022;-80
2022/04/23 02:05:31;;;;;;;22.05;14.10;;;;;;;9.18;73.01;98504.72;12222560;19;20015;-80
2022/04/23 02:09:33;;;;;;;21.98;13.90;;;;;;;9.24;72.75;98516.56;12182884;19;20014;-81
2022/04/23 02:13:34;;;;;;;22.83;14.00;;;;;;;9.26;72.79;98526.19;12208300;19;20007;-80
2022/04/23 02:17:41;;;;;;;26.02;14.15;;;;;;;9.25;72.79;98530.03;12204689;19;20015;-80
2022/04/23 02:21:44;;;;;;;21.58;13.45;;;;;;;9.18;73.47;98525.88;12192416;19;20013;-81
2022/04/23 02:25:46;;;;;;;21.13;13.27;;;;;;;9.09;74.09;98520.09;12210256;19;20655;-81
2022/04/23 02:29:48;;;;;;;20.60;13.35;;;;;;;8.97;74.34;98523.09;12193121;19;20352;-81
2022/04/23 02:33:49;;;;;;;18.15;12.27;;;;;;;8.87;74.95;98520.34;12206433;19;20487;-82
2022/04/23 02:37:56;;;;;;;19.55;13.75;;;;;;;8.76;75.21;98519.47;12215731;19;20368;-81
2022/04/23 02:41:58;;;;;;;20.63;12.48;;;;;;;8.71;76.26;98507.63;12192649;19;20003;-81
2022/04/23 02:46:00;;;;;;;21.45;12.95;;;;;;;8.65;76.25;98501.28;12207196;19;20483;-81
2022/04/23 02:50:02;;;;;;;20.83;13.02;;;;;;;8.64;76.41;98503.22;12211286;19;20050;-81
2022/04/23 02:54:04;;;;;;;18.25;13.05;;;;;;;8.63;76.31;98495.25;12189634;19;20018;-81
2022/04/23 02:58:08;;;;;;;21.85;13.60;;;;;;;8.65;76.91;98491.13;12214714;19;20813;-82
2022/04/23 03:02:09;;;;;;;22.25;13.02;;;;;;;8.73;78.87;98487.03;12218226;19;20011;-81
2022/04/23 03:06:14;;;;;;;23.77;13.20;;;;;;;8.83;78.00;98473.34;12190507;19;20006;-82
2022/04/23 03:10:20;;;;;;;19.80;12.57;;;;;;;8.99;77.58;98476.13;12210419;19;20068;-81
2022/04/23 03:14:22;;;;;;;17.35;12.27;;;;;;;9.07;78.38;98479.16;12198690;19;20014;-82
2022/04/23 03:18:24;;;;;;;19.10;11.30;;;;;;;9.17;79.22;98483.03;12187511;19;20006;-81
2022/04/23 03:22:26;;;;;;;17.02;11.35;;;;;;;9.24;78.85;98483.56;12208388;19;20116;-82
2022/04/23 03:26:28;;;;;;;19.05;11.55;;;;;;;9.32;77.62;98491.28;12203388;19;20575;-81
2022/04/23 03:30:30;;;;;;;18.02;11.38;;;;;;;9.37;78.12;98496.78;12190455;19;20006;-81
2022/04/23 03:34:32;;;;;;;20.13;11.50;;;;;;;9.45;77.98;98489.91;12204197;19;20015;-81
2022/04/23 03:38:35;;;;;;;16.30;11.18;;;;;;;9.51;78.27;98494.31;12210586;19;20030;-81
2022/04/23 03:42:37;;;;;;;15.68;11.30;;;;;;;9.54;78.33;98500.06;12191674;19;20018;-81
2022/04/23 03:46:39;;;;;;;18.70;11.90;;;;;;;9.55;78.79;98482.50;12207366;19;20010;-81
2022/04/23 03:50:41;;;;;;;17.85;10.93;;;;;;;9.61;78.07;98498.97;12194821;19;20276;-81
2022/04/23 03:54:43;;;;;;;17.30;11.30;;;;;;;9.57;78.35;98498.69;12206580;19;20014;-82
2022/04/23 03:58:45;;;;;;;15.50;10.35;;;;;;;9.55;78.28;98496.25;12206218;19;20013;-82
2022/04/23 04:02:46;;;;;;;16.00;10.95;;;;;;;9.54;78.31;98494.56;12178642;19;20373;-82
2022/04/23 04:06:49;;;;;;;16.77;11.37;;;;;;;9.53;78.33;98505.84;12209068;19;20082;-82
2022/04/23 04:10:51;;;;;;;15.52;10.40;;;;;;;9.53;77.82;98503.94;12210613;19;20014;-82
2022/04/23 04:14:52;;;;;;;16.80;10.95;;;;;;;9.48;78.21;98505.84;12181668;19;20017;-81
2022/04/23 04:18:54;;;;;;;16.45;10.68;;;;;;;9.44;78.49;98513.81;12208170;19;20028;-82
2022/04/23 04:22:56;;;;;;;18.35;11.25;;;;;;;9.43;78.14;98514.94;12204485;19;20007;-82
2022/04/23 04:27:00;;;;;;;19.33;11.63;;;;;;;9.38;78.99;98514.94;12184828;19;20023;-81
2022/04/23 04:35:22;;;;;;;16.33;10.55;;;;;;;9.45;79.79;98517.41;12210915;19;20014;-81
2022/04/23 04:39:24;;;;;;;15.48;10.38;;;;;;;9.46;79.52;98517.13;12180660;19;20006;-82
2022/04/23 04:43:25;;;;;;;16.60;10.30;;;;;;;9.55;78.89;98518.25;12205998;19;20010;-82
2022/04/23 04:47:27;;;;;;;15.43;9.85;;;;;;;9.60;78.95;98520.16;12205455;19;20019;-80
2022/04/23 04:51:29;;;;;;;15.70;10.80;;;;;;;9.69;78.89;98529.50;12182512;19;20801;-83
2022/04/23 04:55:33;;;;;;;15.18;10.30;;;;;;;9.72;78.59;98520.69;12207230;19;20007;-83
2022/04/23 04:59:35;;;;;;;16.08;10.80;;;;;;;9.77;78.51;98525.38;12207904;19;20015;-81
2022/04/23 05:03:38;;;;;;;18.67;10.23;;;;;;;9.80;78.33;98528.41;12178108;19;20014;-83
2022/04/23 05:07:40;;;;;;;15.13;10.07;;;;;;;9.89;78.03;98516.84;12212937;19;20688;-82
2022/04/23 05:11:42;;;;;;;14.10;9.60;;;;;;;9.98;77.86;98520.69;12205280;19;20007;-80
2022/04/23 05:15:44;;;;;;;16.00;10.18;;;;;;;10.10;77.79;98526.72;12210821;19;20010;-80
2022/04/23 05:19:46;;;;;;;13.77;9.88;;;;;;;10.21;77.70;98519.28;12207564;19;20006;-81
2022/04/23 05:23:48;;;;;;;15.23;9.52;;;;;;;10.38;77.16;98529.97;12189272;19;20022;-81
2022/04/23 05:27:49;;;;;;;12.13;8.55;;;;;;;10.56;76.41;98517.53;12195695;19;20755;-83
2022/04/23 05:31:51;;;;;;;15.05;9.85;;;;;;;10.63;76.92;98515.31;12213664;19;20006;-83
2022/04/23 05:35:53;;;;;;;12.95;8.70;;;;;;;10.79;76.16;98525.13;12181253;19;20470;-83
2022/04/23 05:39:55;;;;;;;12.57;9.02;;;;;;;10.87;75.90;98521.78;12207742;19;20022;-81
2022/04/23 05:43:58;;;;;;;12.38;8.63;;;;;;;10.91;75.66;98528.38;12209556;19;20141;-82
2022/04/23 05:47:59;;;;;;;;;;;;;;;10.91;75.55;98511.84;12195876;19;20021;-82
2022/04/23 05:52:01;;;;;;;12.45;7.72;;;;;;;10.88;75.58;98509.66;12215947;19;19959;-80
2022/04/23 05:56:03;;;;;;;11.20;7.72;;;;;;;10.80;75.69;98513.03;12211807;19;20010;-82
2022/04/23 06:00:07;;;;;;;11.38;8.20;;;;;;;10.73;76.09;98527.09;12189644;19;20594;-81
2022/04/23 06:04:12;;;;;;;9.60;6.70;;;;;;;10.63;76.28;98529.06;12209082;19;20018;-81
2022/04/23 06:08:14;;;;;;;9.00;6.68;;;;;;;10.63;76.37;98531.84;12211130;19;20010;-79
2022/04/23 06:12:16;;;;;;;7.75;5.70;;;;;;;10.65;76.33;98532.38;12197275;19;20487;-81
2022/04/23 06:16:19;;;;;;;9.02;4.80;;;;;;;10.61;76.56;98531.28;12215758;19;20010;-80
2022/04/23 06:20:21;;;;;;;8.23;5.88;;;;;;;10.70;75.77;98554.38;12209293;19;20536;-81
2022/04/23 06:24:22;;;;;;;7.85;4.97;;;;;;;10.76;75.58;98549.69;12208481;19;20010;-81
2022/04/23 06:28:24;;;;;;;7.30;4.55;;;;;;;10.81;75.30;98549.66;12217660;19;20011;-81
2022/04/23 06:32:26;;;;;;;6.18;4.40;;;;;;;10.90;74.85;98557.06;12228200;19;20726;-81
2022/04/23 06:36:28;;;;;;;7.18;4.13;;;;;;;11.00;74.56;98560.88;12226123;19;20018;-79
2022/04/23 06:40:30;;;;;;;6.28;4.13;;;;;;;11.04;74.17;98561.97;12235548;19;20053;-80
2022/04/23 06:44:33;;;;;;;5.93;3.87;;;;;;;11.18;73.52;98558.31;12225219;19;20074;-81
2022/04/23 06:48:35;;;;;;;6.28;4.13;;;;;;;11.34;73.04;98563.72;12189951;19;20019;-82
2022/04/23 06:52:37;;;;;;;5.95;3.80;;;;;;;11.47;72.63;98562.25;12210795;19;20058;-81
2022/04/23 06:56:39;;;;;;;7.18;4.50;;;;;;;11.60;72.17;98556.09;12206478;19;20475;-82
2022/04/23 07:00:41;;;;;;;7.00;3.97;;;;;;;11.76;71.53;98554.88;12194899;19;20017;-83
2022/04/23 07:04:44;;;;;;;7.22;4.22;;;;;;;11.85;70.81;98558.69;12206414;19;20005;-79
2022/04/23 07:08:46;;;;;;;5.67;3.83;;;;;;;11.88;70.33;98559.22;12194783;19;20011;-81
2022/04/23 07:12:48;;;;;;;6.57;4.30;;;;;;;11.98;69.85;98567.41;12214548;19;19999;-81
2022/04/23 07:16:50;;;;;;;6.60;4.17;;;;;;;12.22;69.21;98565.53;12204073;19;20259;-81
2022/04/23 07:20:52;;;;;;;5.43;4.07;;;;;;;12.42;67.52;98567.25;12188276;19;20010;-80
2022/04/23 07:24:54;;;;;;;8.45;5.10;;;;;;;12.67;67.18;98568.09;12219345;19;20120;-79
2022/04/23 07:28:55;;;;;;;7.23;4.77;;;;;;;12.75;66.05;98568.28;12223173;19;20007;-79
2022/04/23 07:32:57;;;;;;;6.30;4.60;;;;;;;12.79;66.34;98576.81;12203451;19;20011;-81
2022/04/23 07:41:21;;;;;;;9.80;4.47;;;;;;;12.50;65.51;98574.09;12212601;19;20031;-81
2022/04/23 07:45:24;;;;;;;6.68;4.60;;;;;;;12.40;66.15;98588.81;12189944;19;20086;-80
2022/04/23 07:49:27;;;;;;;;;;;;;;;12.33;66.42;98585.59;12207002;19;20006;-79
2022/04/23 07:53:29;;;;;;;7.97;5.50;;;;;;;12.32;66.33;98582.00;12224497;19;19921;-79
2022/04/23 07:57:30;;;;;;;7.65;4.72;;;;;;;12.61;65.67;98577.56;12189589;19;20014;-81
2022/04/23 08:01:32;;;;;;;8.77;4.50;;;;;;;12.99;65.09;98578.50;12211381;19;20407;-80
2022/04/23 08:05:36;;;;;;;8.93;4.85;;;;;;;13.53;63.62;98582.75;12207634;19;20340;-79
2022/04/23 08:09:39;;;;;;;5.07;3.97;;;;;;;13.96;62.00;98570.78;12188965;19;20033;-79
2022/04/23 08:13:43;;;;;;;6.03;4.00;;;;;;;14.40;61.45;98567.50;12205338;19;20010;-80
2022/04/23 08:17:44;;;;;;;7.22;5.38;;;;;;;14.65;59.57;98568.19;12186673;19;20019;-80
2022/04/23 08:21:46;;;;;;;7.50;4.82;;;;;;;14.68;59.32;98578.66;12207442;19;20010;-81
2022/04/23 08:25:48;;;;;;;7.38;4.97;;;;;;;14.73;57.95;98565.50;12199689;19;20348;-79
2022/04/23 08:34:12;;;;;;;6.18;4.68;;;;;;;15.21;56.89;98567.84;12207702;19;20025;-80
2022/04/23 08:38:14;;;;;;;5.93;4.35;;;;;;;15.55;56.79;98560.97;12203507;19;20034;-80
2022/04/23 08:42:17;;;;;;;6.13;4.10;;;;;;;15.63;54.93;98573.31;12189975;19;20027;-82
2022/04/23 08:46:22;;;;;;;5.47;4.28;;;;;;;15.54;54.64;98556.56;12220560;19;20010;-81
2022/04/23 08:50:26;;;;;;;7.97;4.03;;;;;;;15.49;54.72;98565.00;12213811;19;20054;-79
2022/04/23 08:54:28;;;;;;;6.85;3.83;;;;;;;15.70;54.21;98573.72;12190649;19;20496;-82
2022/04/23 08:58:33;;;;;;;5.97;4.15;;;;;;;15.74;53.77;98569.19;12211573;19;20010;-80
2022/04/23 09:02:35;;;;;;;7.63;5.22;;;;;;;15.73;53.34;98567.53;12215585;19;20017;-80
2022/04/23 09:06:41;;;;;;;8.65;5.03;;;;;;;15.97;52.83;98560.84;12190195;19;20030;-79
2022/04/23 09:10:48;;;;;;;6.93;4.40;;;;;;;16.31;53.23;98547.19;12209745;19;20010;-80
2022/04/23 09:15:04;;;;;;;6.05;4.35;;;;;;;16.57;51.62;98554.84;12170030;19;20026;-79
2022/04/23 09:23:41;;;;;;;4.55;3.28;;;;;;;16.78;50.83;98541.22;12196557;19;20021;-79
2022/04/23 09:27:43;;;;;;;5.50;3.28;;;;;;;16.98;50.95;98551.75;12165438;19;20010;-80
2022/04/23 09:31:45;;;;;;;4.23;2.83;;;;;;;17.30;49.99;98553.28;12187262;19;20011;-79
2022/04/23 09:36:03;;;;;;;5.57;3.27;;;;;;;17.42;48.93;98551.84;12176750;19;20011;-81
2022/04/23 09:40:21;;;;;;;5.80;3.40;;;;;;;17.14;48.65;98549.34;12206054;19;20259;-81
2022/04/23 09:44:28;;;;;;;8.13;3.65;;;;;;;16.99;48.61;98556.19;12213795;19;20006;-81
2022/04/23 09:48:30;;;;;;;5.00;3.35;;;;;;;17.16;48.78;98560.97;12191560;19;20024;-80
2022/04/23 09:52:32;;;;;;;5.03;3.60;;;;;;;17.25;48.80;98555.41;12211359;19;20010;-81
2022/04/23 09:56:55;;;;;;;5.40;3.58;;;;;;;17.21;49.34;98560.00;12196354;19;20032;-82
2022/04/23 10:00:58;;;;;;;4.40;3.50;;;;;;;17.15;49.22;98559.31;12220375;19;20054;-80
2022/04/23 10:05:01;;;;;;;;;;;;;;;17.13;49.06;98563.56;12211845;19;20021;-82
2022/04/23 10:09:06;;;;;;;5.30;3.67;;;;;;;17.39;49.04;98560.84;12193117;19;19936;-83
2022/04/23 10:13:10;;;;;;;7.53;4.00;;;;;;;17.82;48.71;98562.84;12213512;19;20475;-82
2022/04/23 10:17:17;;;;;;;6.18;4.57;;;;;;;17.89;47.57;98572.38;12206321;19;20010;-81
2022/04/23 10:21:30;;;;;;;5.32;3.80;;;;;;;17.87;47.68;98566.31;12192775;19;20014;-81
2022/04/23 10:25:45;;;;;;;;;;;;;;;18.22;47.20;98566.28;12209850;19;20029;-80
2022/04/23 10:29:50;;;;;;;5.88;3.95;;;;;;;18.43;46.50;98566.41;12188685;19;20314;-81
2022/04/23 10:33:54;;;;;;;8.18;4.63;;;;;;;18.44;46.05;98556.88;12217670;19;20026;-80
2022/04/23 10:37:56;;;;;;;7.00;5.13;;;;;;;17.80;46.09;98559.59;12199914;19;20873;-81
2022/04/23 10:42:02;;;;;;;8.53;5.10;;;;;;;17.90;46.74;98557.28;12194135;19;20015;-81
2022/04/23 10:46:07;;;;;;;6.75;4.72;;;;;;;18.28;46.47;98562.16;12208053;19;20657;-81
2022/04/23 10:50:16;;;;;;;7.25;5.20;;;;;;;18.50;45.89;98549.97;12204934;19;20034;-81
2022/04/23 10:54:40;;;;;;;8.10;5.63;;;;;;;18.69;44.72;98557.94;12188988;19;20465;-84
2022/04/23 10:58:43;;;;;;;8.95;6.13;;;;;;;18.80;45.33;98553.66;12208939;19;20002;-80
2022/04/23 11:02:53;;;;;;;8.52;5.80;;;;;;;18.90;44.60;98552.47;12187592;19;20006;-79
2022/04/23 11:16:08;;;;;;;10.00;6.95;;;;;;;18.50;45.35;98546.34;12179829;19;20019;-81
2022/04/23 11:20:11;;;;;;;8.82;6.70;;;;;;;18.36;45.38;98543.78;12201026;19;20013;-81
2022/04/23 11:24:15;;;;;;;8.40;6.78;;;;;;;18.35;45.86;98533.75;12188793;19;20010;-80
2022/04/23 11:28:23;;;;;;;11.45;6.55;;;;;;;18.55;45.17;98530.25;12201630;19;20083;-79
2022/04/23 11:32:30;;;;;;;11.85;7.60;;;;;;;18.30;44.69;98528.38;12215878;19;20485;-81
2022/04/23 11:36:36;;;;;;;10.63;7.13;;;;;;;18.46;45.38;98532.25;12188733;19;20011;-82
2022/04/23 11:40:38;;;;;;;10.82;6.70;;;;;;;18.80;44.52;98530.50;12216161;19;20054;-82
2022/04/23 11:44:46;;;;;;;11.83;8.27;;;;;;;18.56;45.11;98531.91;12208193;19;20007;-82
2022/04/23 11:48:49;;;;;;;11.55;8.38;;;;;;;17.99;45.52;98530.25;12191534;19;20003;-81
2022/04/23 11:53:03;;;;;;;12.25;9.13;;;;;;;18.03;45.77;98526.81;12213170;19;20014;-82
2022/04/23 11:57:08;;;;;;;11.02;7.97;;;;;;;18.05;45.92;98516.13;12191615;19;20029;-83
2022/04/23 12:01:11;;;;;;;13.75;8.43;;;;;;;18.55;45.07;98524.69;12205365;19;20107;-82
2022/04/23 12:05:22;;;;;;;13.25;8.82;;;;;;;18.08;45.99;98524.63;12213548;19;20026;-79
2022/04/23 12:09:23;;;;;;;12.10;8.70;;;;;;;18.07;46.02;98523.00;12186374;19;20540;-79
2022/04/23 12:13:25;;;;;;;15.35;9.90;;;;;;;17.73;46.56;98535.00;12208885;19;20014;-80
2022/04/23 12:17:42;;;;;;;17.30;9.40;;;;;;;18.08;46.99;98533.00;12202574;19;20007;-80
2022/04/23 12:21:57;;;;;;;14.00;10.00;;;;;;;18.04;46.43;98520.88;12188397;19;20014;-81
2022/04/23 12:26:08;;;;;;;14.60;10.30;;;;;;;18.28;46.03;98513.94;12205736;19;20014;-81
2022/04/23 12:43:32;;;;;;;16.77;12.75;;;;;;;19.80;43.25;98503.72;12236247;19;20011;-79
2022/04/23 12:47:34;;;;;;;16.55;11.88;;;;;;;19.68;43.56;98498.91;12238781;19;20005;-81
2022/04/23 12:51:50;;;;;;;17.70;13.18;;;;;;;19.49;44.04;98488.19;12220345;19;20021;-78
2022/04/23 12:55:52;;;;;;;21.30;12.23;;;;;;;19.72;43.39;98493.44;12245614;19;20011;-79
2022/04/23 12:59:54;;;;;;;20.57;13.13;;;;;;;19.91;43.11;98490.16;12222046;19;20014;-79
2022/04/23 13:03:56;;;;;;;19.85;13.65;;;;;;;19.57;42.71;98490.09;12242786;19;20023;-79
2022/04/23 13:12:25;;;;;;;27.48;14.75;;;;;;;18.63;44.38;98479.19;12217104;19;20014;-79
2022/04/23 13:16:30;;;;;;;17.23;12.45;;;;;;;18.24;45.09;98476.75;12227656;19;20451;-82
2022/04/23 13:20:32;;;;;;;18.75;12.85;;;;;;;17.87;46.17;98473.53;12220725;19;20047;-82
2022/04/23 13:24:33;;;;;;;20.83;11.55;;;;;;;17.58;46.37;98472.25;12190169;19;20010;-81
2022/04/23 13:28:35;;;;;;;17.88;12.18;;;;;;;17.08;47.56;98467.16;12213855;19;20013;-80
2022/04/23 13:32:39;;;;;;;18.10;12.35;;;;;;;16.93;48.04;98451.75;12226851;19;20003;-80
2022/04/23 13:36:41;;;;;;;17.45;12.43;;;;;;;17.16;47.68;98451.59;12208817;19;20095;-82
2022/04/23 13:40:45;;;;;;;19.95;11.80;;;;;;;17.47;47.30;98443.09;12225940;19;20002;-80
2022/04/23 13:44:47;;;;;;;16.25;10.70;;;;;;;17.71;46.90;98437.81;12196203;19;20730;-81
2022/04/23 13:48:50;;;;;;;18.02;11.65;;;;;;;17.76;46.39;98437.63;12214308;19;20027;-81
2022/04/23 13:52:51;;;;;;;15.43;11.07;;;;;;;18.55;45.52;98443.78;12222986;19;20009;-79
2022/04/23 13:56:53;;;;;;;15.30;10.02;;;;;;;18.88;44.80;98443.13;12193861;19;20013;-82
2022/04/23 14:00:55;;;;;;;16.65;10.85;;;;;;;18.75;44.05;98424.69;12213723;19;20018;-81
2022/04/23 14:13:44;;;;;;;17.73;10.85;;;;;;;19.78;41.00;98419.41;12210319;19;20018;-79
2022/04/23 14:17:46;;;;;;;15.60;11.38;;;;;;;18.96;42.43;98416.31;12201660;19;20010;-80
2022/04/23 14:21:48;;;;;;;15.20;10.67;;;;;;;18.64;43.97;98427.00;12222714;19;20007;-81
2022/04/23 14:25:50;;;;;;;17.17;11.50;;;;;;;18.33;44.58;98418.97;12221596;19;20776;-82
2022/04/23 14:29:52;;;;;;;;;;;;;;;18.29;44.85;98407.63;12203414;19;20022;-81
2022/04/23 14:33:54;;;;;;;16.73;11.57;;;;;;;18.11;44.67;98408.88;12216342;19;19962;-79
2022/04/23 14:37:56;;;;;;;16.90;11.53;;;;;;;17.94;45.08;98399.44;12213254;19;20029;-81
2022/04/23 14:41:58;;;;;;;14.17;11.20;;;;;;;17.90;45.37;98406.81;12196278;19;20023;-81
2022/04/23 14:46:00;;;;;;;15.73;10.75;;;;;;;17.82;45.38;98398.47;12214167;19;20018;-79
2022/04/23 14:50:02;;;;;;;20.97;13.13;;;;;;;18.05;45.15;98399.06;12215829;19;20462;-81
2022/04/23 14:54:03;;;;;;;18.80;11.63;;;;;;;18.14;45.01;98389.50;12192573;19;20346;-82
2022/04/23 14:58:06;;;;;;;17.00;11.93;;;;;;;18.10;44.64;98388.53;12208128;19;20011;-81
2022/04/23 15:02:08;;;;;;;15.00;10.88;;;;;;;18.05;44.77;98390.69;12208261;19;20015;-80
2022/04/23 15:06:10;;;;;;;14.63;10.25;;;;;;;17.78;45.07;98389.97;12185204;19;20017;-79
2022/04/23 15:10:11;;;;;;;15.03;10.17;;;;;;;17.60;45.18;98382.78;12214231;19;20729;-81
2022/04/23 15:14:13;;;;;;;17.45;11.10;;;;;;;17.66;45.27;98382.25;12198989;19;20034;-79
2022/04/23 15:18:15;;;;;;;14.60;9.43;;;;;;;17.49;45.45;98371.16;12189562;19;20007;-80
2022/04/23 15:22:18;;;;;;;12.88;9.40;;;;;;;17.58;45.53;98366.41;12212534;19;20346;-79
2022/04/23 15:26:22;;;;;;;13.27;9.25;;;;;;;17.40;45.85;98360.06;12206229;19;20014;-79
2022/04/23 15:30:27;;;;;;;13.95;9.95;;;;;;;17.10;45.88;98356.28;12183881;19;20010;-76
2022/04/23 15:34:29;;;;;;;14.38;8.52;;;;;;;16.92;46.60;98349.91;12203773;19;20014;-80
2022/04/23 15:38:30;;;;;;;12.43;8.00;;;;;;;17.13;46.02;98346.47;12206046;19;20010;-80
2022/04/23 15:42:33;;;;;;;13.75;8.18;;;;;;;17.18;46.17;98349.91;12188053;19;20022;-81
2022/04/23 15:46:35;;;;;;;12.60;8.23;;;;;;;17.19;45.96;98345.16;12208139;19;20079;-80
2022/04/23 15:50:41;;;;;;;12.40;8.88;;;;;;;17.23;45.93;98349.75;12200332;19;20007;-80
2022/04/23 15:54:43;;;;;;;11.20;7.55;;;;;;;17.11;45.91;98337.66;12184342;19;20009;-81
2022/04/23 15:58:44;;;;;;;12.57;8.55;;;;;;;17.23;46.14;98329.44;12212126;19;20006;-82
2022/04/23 16:03:24;;;;;;;17.80;11.85;;;;;;;17.31;46.38;98335.00;12181550;19;20007;-80
2022/04/23 16:07:09;;;;;;;11.02;8.05;;;;;;;17.14;45.80;98317.53;12200094;19;20085;-81
2022/04/23 16:11:31;;;;;;;10.68;7.63;;;;;;;17.23;46.01;98323.88;12209461;19;20017;-80
2022/04/23 16:15:34;;;;;;;10.23;7.80;;;;;;;17.24;45.67;98317.16;12182474;19;20030;-78
2022/04/23 16:19:40;;;;;;;11.45;7.88;;;;;;;17.19;45.67;98318.16;12197746;19;20014;-80
2022/04/23 16:23:42;;;;;;;11.40;7.55;;;;;;;17.29;45.55;98306.66;12197117;19;20020;-78
2022/04/23 16:27:44;;;;;;;12.07;7.65;;;;;;;17.30;45.36;98313.88;12214949;19;20010;-80
2022/04/23 16:31:46;;;;;;;11.27;7.60;;;;;;;17.24;45.65;98314.38;12208454;19;20401;-81
2022/04/23 16:48:54;;;;;;;10.48;6.97;;;;;;;16.96;46.32;98303.63;12174297;19;20434;-81
2022/04/23 16:57:29;;;;;;;10.60;6.03;;;;;;;16.80;46.44;98303.28;12179929;19;20033;-80
2022/04/23 17:01:31;;;;;;;9.32;7.13;;;;;;;16.78;46.60;98294.47;12211409;19;20011;-81
2022/04/23 17:05:33;;;;;;;10.05;7.07;;;;;;;16.68;46.62;98303.09;12216979;19;20014;-80
2022/04/23 17:09:35;;;;;;;10.38;6.82;;;;;;;16.59;46.80;98296.72;12196315;19;20528;-81
2022/04/23 17:13:37;;;;;;;15.67;8.20;;;;;;;16.43;47.20;98303.91;12222765;19;20002;-80
2022/04/23 17:17:38;;;;;;;11.57;7.40;;;;;;;16.26;47.27;98296.34;12219231;19;20026;-80
2022/04/23 17:21:41;;;;;;;10.35;7.20;;;;;;;16.22;47.20;98290.63;12194454;19;20298;-80
2022/04/23 17:25:43;;;;;;;11.32;7.25;;;;;;;16.10;47.52;98287.66;12220585;19;20034;-81
2022/04/23 17:29:44;;;;;;;11.48;7.13;;;;;;;16.02;47.88;98286.47;12196735;19;20010;-82
2022/04/23 17:33:46;;;;;;;13.70;7.43;;;;;;;15.91;48.31;98288.75;12218214;19;20018;-81
2022/04/23 17:38:54;;;;;;;10.82;7.85;;;;;;;15.79;48.98;98280.19;12216026;19;20043;-81
2022/04/23 17:42:10;;;;;;;11.10;6.53;;;;;;;15.69;48.87;98281.31;12202379;19;20019;-81
2022/04/23 17:46:11;;;;;;;10.80;7.60;;;;;;;15.61;49.20;98276.50;12219891;19;20026;-81
2022/04/23 18:14:45;;;;;;;10.40;7.63;;;;;;;14.80;52.01;98268.38;12195092;19;20010;-79
2022/04/23 18:18:47;;;;;;;10.83;6.90;;;;;;;14.67;53.56;98270.09;12209388;19;20013;-81
2022/04/23 18:22:49;;;;;;;11.75;7.15;;;;;;;14.54;53.54;98263.44;12216266;19;20013;-79
2022/04/23 18:31:49;;;;;;;11.80;7.75;;;;;;;14.29;54.93;98262.06;12179973;19;20046;-79
2022/04/23 18:35:50;;;;;;;9.85;6.88;;;;;;;14.12;54.68;98254.41;12219277;19;20010;-80
2022/04/23 18:39:52;;;;;;;10.93;7.25;;;;;;;14.03;55.54;98264.59;12211370;19;20138;-81
2022/04/23 18:43:55;;;;;;;14.90;10.38;;;;;;;13.91;55.87;98258.75;12217038;19;20010;-81
2022/04/23 18:48:05;;;;;;;11.18;7.57;;;;;;;13.81;56.53;98259.81;12196896;19;20014;-80
2022/04/23 18:52:07;;;;;;;;;;;;;;;13.70;57.10;98257.56;12215059;19;20006;-80
2022/04/23 18:56:08;;;;;;;13.85;7.00;;;;;;;13.56;57.03;98252.81;12217066;19;19911;-81
2022/04/23 19:00:11;;;;;;;11.40;6.88;;;;;;;13.42;57.90;98247.31;12189514;19;20014;-81
2022/04/23 19:04:13;;;;;;;11.00;6.85;;;;;;;13.22;59.03;98240.19;12211306;19;20014;-80
2022/04/23 19:08:15;;;;;;;9.93;6.40;;;;;;;13.06;59.85;98243.53;12214550;19;20013;-77
2022/04/23 19:12:17;;;;;;;11.18;7.18;;;;;;;12.95;60.05;98248.44;12189595;19;20018;-78
2022/04/23 19:16:20;;;;;;;;;;;;;;;12.86;61.07;98233.66;12209328;19;20048;-80
2022/04/23 20:30:31;;;;;;;12.40;8.30;;;;;;;11.18;69.42;98202.66;12201050;19;20041;-78
2022/04/23 20:39:40;;;;;;;11.13;8.13;;;;;;;11.05;70.71;98180.47;12213328;19;20026;-80
2022/04/23 20:59:05;;;;;;;11.60;7.90;;;;;;;10.75;72.46;98165.91;12231624;19;20021;-80
2022/04/23 21:03:06;;;;;;;12.57;7.43;;;;;;;10.73;73.10;98162.59;12193843;19;20100;-80
2022/04/23 21:07:09;;;;;;;12.10;7.60;;;;;;;10.73;73.45;98162.59;12211096;19;20017;-80
2022/04/23 21:11:11;;;;;;;11.65;7.88;;;;;;;10.74;73.78;98153.25;12213804;19;20267;-81
2022/04/23 21:15:13;;;;;;;12.50;8.63;;;;;;;10.74;73.94;98142.22;12196597;19;20002;-82
2022/04/23 21:19:15;;;;;;;13.07;8.30;;;;;;;10.77;74.03;98146.31;12213617;19;20388;-80
2022/04/23 21:23:19;;;;;;;12.60;8.43;;;;;;;10.73;74.14;98140.56;12241986;19;20014;-77
2022/04/23 21:27:21;;;;;;;12.87;7.77;;;;;;;10.73;74.66;98129.53;12209724;19;20010;-80
2022/04/23 21:31:23;;;;;;;11.68;7.63;;;;;;;10.71;75.20;98121.59;12217825;19;20010;-79
2022/04/23 21:35:26;;;;;;;12.60;8.93;;;;;;;10.69;74.95;98128.50;12217256;19;20014;-81
2022/04/23 21:39:27;;;;;;;11.47;7.83;;;;;;;10.62;75.75;98116.97;12187750;19;20011;-81
2022/04/23 21:47:51;;;;;;;12.88;7.88;;;;;;;10.46;76.04;98103.38;12186386;19;20006;-80
2022/04/23 21:51:53;;;;;;;12.10;8.40;;;;;;;10.39;76.06;98100.16;12208379;19;20010;-81
2022/04/23 21:55:54;;;;;;;11.10;7.57;;;;;;;10.33;76.39;98092.25;12203288;19;20094;-81